createdAt,value
2023-05-08T00:01:17.990Z,4.20
2023-05-08T00:03:44.589Z,3.60
2023-05-08T00:06:11.238Z,3.83
2023-05-08T00:08:37.735Z,3.23
2023-05-08T00:11:04.262Z,3.50
2023-05-08T00:13:30.738Z,4.20
2023-05-08T00:15:57.258Z,4.23
2023-05-08T00:18:23.862Z,4.77
2023-05-08T00:20:50.398Z,4.23
2023-05-08T00:23:16.890Z,4.30
2023-05-08T00:25:43.394Z,4.00
2023-05-08T00:28:09.880Z,4.20
2023-05-08T00:30:36.466Z,4.30
2023-05-08T00:33:02.993Z,4.37
2023-05-08T00:35:29.558Z,4.30
2023-05-08T00:37:56.277Z,4.40
2023-05-08T00:40:22.821Z,4.93
2023-05-08T00:42:49.255Z,5.13
2023-05-08T00:45:15.717Z,4.90
2023-05-08T00:47:42.607Z,4.70
2023-05-08T00:50:10.587Z,4.10
2023-05-08T00:52:37.625Z,4.53
2023-05-08T00:55:05.148Z,4.63
2023-05-08T00:57:34.487Z,3.83
2023-05-08T01:00:01.813Z,3.77
2023-05-08T01:02:31.248Z,5.80
2023-05-08T01:04:58.003Z,5.03
2023-05-08T01:07:24.583Z,4.47
2023-05-08T01:09:51.017Z,4.93
2023-05-08T01:12:28.768Z,4.50
2023-05-08T01:15:06.554Z,4.60
2023-05-08T01:18:00.910Z,4.50
2023-05-08T01:20:45.862Z,4.60
2023-05-08T01:23:34.173Z,4.60
2023-05-08T01:26:19.203Z,4.97
2023-05-08T01:28:55.020Z,6.27
2023-05-08T01:31:39.927Z,6.00
2023-05-08T01:34:09.188Z,4.77
2023-05-08T01:37:03.881Z,4.90
2023-05-08T01:39:39.984Z,5.20
2023-05-08T01:42:13.046Z,5.27
2023-05-08T01:44:44.226Z,6.60
2023-05-08T01:47:11.853Z,8.47
2023-05-08T01:50:02.165Z,6.27
2023-05-08T01:52:33.328Z,5.67
2023-05-08T01:55:04.054Z,5.90
2023-05-08T01:57:33.515Z,5.20
2023-05-08T02:00:01.246Z,5.17
2023-05-08T02:02:30.221Z,4.80
2023-05-08T02:04:57.379Z,4.50
2023-05-08T02:07:24.710Z,5.30
2023-05-08T02:09:51.801Z,5.23
2023-05-08T02:12:18.940Z,4.50
2023-05-08T02:14:47.367Z,4.67
2023-05-08T02:17:16.392Z,5.37
2023-05-08T02:19:44.117Z,5.03
2023-05-08T02:22:10.831Z,5.40
2023-05-08T02:24:38.565Z,5.33
2023-05-08T02:27:06.024Z,5.60
2023-05-08T02:29:32.699Z,4.70
2023-05-08T02:32:01.191Z,4.87
2023-05-08T02:34:28.423Z,5.23
2023-05-08T02:36:55.044Z,4.80
2023-05-08T02:39:25.940Z,5.30
2023-05-08T02:41:52.475Z,5.27
2023-05-08T02:44:19.215Z,6.00
2023-05-08T02:46:54.098Z,6.60
2023-05-08T02:49:33.606Z,6.20
2023-05-08T02:52:11.521Z,7.10
2023-05-08T02:54:56.184Z,7.07
2023-05-08T02:57:38.000Z,6.90
2023-05-08T03:00:27.904Z,6.73
2023-05-08T03:03:13.235Z,6.53
2023-05-08T03:05:43.475Z,5.77
2023-05-08T03:08:19.842Z,6.63
2023-05-08T03:10:49.988Z,6.30
2023-05-08T03:13:17.057Z,6.57
2023-05-08T03:15:46.991Z,6.63
2023-05-08T03:18:16.155Z,6.57
2023-05-08T03:20:48.170Z,6.70
2023-05-08T03:23:15.820Z,6.77
2023-05-08T03:25:43.273Z,6.50
2023-05-08T03:28:10.278Z,7.20
2023-05-08T03:30:38.028Z,9.37
2023-05-08T03:33:05.699Z,7.40
2023-05-08T03:35:32.428Z,6.50
2023-05-08T03:37:59.423Z,7.33
2023-05-08T03:40:27.484Z,7.43
2023-05-08T03:42:54.145Z,6.33
2023-05-08T03:45:20.754Z,6.87
2023-05-08T03:47:48.067Z,7.87
2023-05-08T03:50:15.837Z,9.10
2023-05-08T03:52:42.642Z,8.10
2023-05-08T03:55:09.630Z,8.73
2023-05-08T03:57:46.101Z,10.37
2023-05-08T04:00:49.748Z,10.07
2023-05-08T04:03:25.703Z,8.70
2023-05-08T04:06:01.093Z,7.97
2023-05-08T04:08:32.401Z,8.20
2023-05-08T04:11:18.392Z,8.97
2023-05-08T04:13:50.503Z,8.17
2023-05-08T04:16:21.281Z,8.70
2023-05-08T04:18:49.892Z,9.03
2023-05-08T04:21:20.617Z,8.80
2023-05-08T04:23:50.618Z,8.83
2023-05-08T04:26:18.235Z,8.40
2023-05-08T04:28:46.760Z,8.83
2023-05-08T04:31:14.754Z,8.80
2023-05-08T04:33:43.179Z,8.60
2023-05-08T04:36:13.637Z,8.40
2023-05-08T04:38:40.958Z,8.10
2023-05-08T04:41:07.996Z,7.73
2023-05-08T04:43:35.069Z,7.83
2023-05-08T04:46:01.822Z,7.30
2023-05-08T04:48:28.523Z,6.40
2023-05-08T04:50:54.984Z,6.53
2023-05-08T04:53:21.419Z,6.63
2023-05-08T04:55:47.866Z,5.73
2023-05-08T04:58:14.333Z,5.73
2023-05-08T05:00:40.800Z,5.50
2023-05-08T05:03:07.402Z,4.73
2023-05-08T05:05:37.669Z,4.90
2023-05-08T05:08:05.385Z,5.07
2023-05-08T05:10:31.853Z,4.27
2023-05-08T05:12:58.373Z,4.73
2023-05-08T05:15:24.878Z,4.03
2023-05-08T05:17:51.404Z,3.90
2023-05-08T05:20:18.046Z,3.67
2023-05-08T05:22:44.463Z,3.17
2023-05-08T05:25:11.775Z,3.03
2023-05-08T05:27:38.534Z,3.40
2023-05-08T05:30:05.628Z,2.93
2023-05-08T05:32:32.343Z,2.90
2023-05-08T05:34:58.838Z,2.60
2023-05-08T05:37:25.293Z,2.33
2023-05-08T05:39:51.744Z,2.00
2023-05-08T05:42:18.332Z,2.20
2023-05-08T05:44:45.054Z,2.23
2023-05-08T05:47:11.964Z,1.97
2023-05-08T05:49:39.953Z,1.80
2023-05-08T05:52:06.777Z,2.00
2023-05-08T05:54:33.651Z,1.63
2023-05-08T05:57:00.166Z,1.43
2023-05-08T05:59:26.905Z,1.77
2023-05-08T06:01:53.567Z,1.50
2023-05-08T06:04:20.384Z,1.50
2023-05-08T06:06:47.306Z,1.70
2023-05-08T06:09:13.846Z,2.03
2023-05-08T06:11:40.653Z,1.70
2023-05-08T06:14:07.307Z,1.63
2023-05-08T06:16:35.548Z,1.90
2023-05-08T06:19:02.169Z,1.77
2023-05-08T06:21:28.798Z,1.90
2023-05-08T06:23:55.687Z,2.10
2023-05-08T06:26:23.578Z,1.97
2023-05-08T06:28:50.314Z,2.03
2023-05-08T06:31:16.896Z,2.00
2023-05-08T06:33:43.435Z,1.50
2023-05-08T06:36:10.292Z,2.00
2023-05-08T06:38:37.028Z,1.73
2023-05-08T06:41:03.550Z,2.00
2023-05-08T06:43:30.693Z,2.73
2023-05-08T06:45:57.338Z,2.10
2023-05-08T06:48:28.901Z,2.30
2023-05-08T06:50:56.378Z,2.60
2023-05-08T06:53:22.945Z,2.43
2023-05-08T06:55:49.451Z,2.33
2023-05-08T06:58:16.034Z,2.00
2023-05-08T07:00:42.813Z,2.20
2023-05-08T07:03:09.426Z,1.87
2023-05-08T07:05:36.138Z,1.70
2023-05-08T07:08:02.622Z,1.90
2023-05-08T07:10:29.264Z,2.17
2023-05-08T07:12:55.845Z,1.63
2023-05-08T07:15:26.585Z,1.87
2023-05-08T07:17:53.942Z,3.83
2023-05-08T07:20:21.482Z,4.90
2023-05-08T07:22:48.199Z,2.20
2023-05-08T07:25:14.845Z,1.67
2023-05-08T07:27:42.011Z,1.67
2023-05-08T07:30:09.133Z,1.60
2023-05-08T07:32:36.161Z,1.80
2023-05-08T07:35:03.684Z,1.53
2023-05-08T07:37:30.277Z,1.73
2023-05-08T07:39:56.835Z,1.80
2023-05-08T07:42:23.353Z,1.63
2023-05-08T07:44:54.972Z,1.70
2023-05-08T07:47:22.148Z,2.00
2023-05-08T07:49:48.682Z,1.70
2023-05-08T07:52:15.221Z,1.73
2023-05-08T07:54:41.834Z,1.70
2023-05-08T07:57:08.338Z,1.90
2023-05-08T07:59:34.810Z,2.00
2023-05-08T08:02:01.392Z,1.60
2023-05-08T08:04:28.130Z,2.27
2023-05-08T08:06:55.250Z,2.00
2023-05-08T08:09:21.799Z,2.50
2023-05-08T08:11:48.306Z,1.97
2023-05-08T08:14:14.820Z,2.20
2023-05-08T08:16:42.562Z,2.03
2023-05-08T08:19:09.150Z,1.80
2023-05-08T08:21:35.636Z,1.90
2023-05-08T08:24:02.161Z,1.90
2023-05-08T08:26:28.777Z,2.33
2023-05-08T08:28:55.230Z,2.10
2023-05-08T08:31:21.751Z,1.87
2023-05-08T08:33:48.244Z,1.83
2023-05-08T08:36:15.284Z,1.83
2023-05-08T08:38:42.297Z,1.87
2023-05-08T08:41:08.858Z,2.10
2023-05-08T08:43:35.517Z,2.10
2023-05-08T08:46:13.110Z,2.40
2023-05-08T08:48:44.390Z,1.70
2023-05-08T08:51:32.103Z,2.30
2023-05-08T08:54:13.102Z,1.97
2023-05-08T08:56:42.995Z,2.07
2023-05-08T08:59:11.563Z,1.80
2023-05-08T09:01:39.845Z,1.87
2023-05-08T09:04:06.601Z,1.90
2023-05-08T09:06:36.568Z,1.90
2023-05-08T09:09:03.723Z,2.00
2023-05-08T09:11:30.361Z,2.00
2023-05-08T09:13:58.926Z,2.00
2023-05-08T09:16:26.073Z,1.80
2023-05-08T09:18:52.578Z,2.27
2023-05-08T09:21:19.692Z,2.13
2023-05-08T09:23:56.965Z,2.00
2023-05-08T09:26:32.426Z,2.20
2023-05-08T09:29:18.203Z,1.93
2023-05-08T09:31:46.828Z,1.97
2023-05-08T09:34:25.302Z,1.90
2023-05-08T09:36:51.864Z,1.70
2023-05-08T09:39:25.533Z,1.80
2023-05-08T09:42:02.368Z,2.20
2023-05-08T09:44:29.266Z,2.10
2023-05-08T09:47:20.487Z,1.70
2023-05-08T09:50:00.299Z,2.43
2023-05-08T09:52:28.313Z,1.83
2023-05-08T09:54:58.918Z,2.33
2023-05-08T09:57:29.392Z,2.00
2023-05-08T10:00:13.228Z,1.80
2023-05-08T10:02:41.967Z,1.73
2023-05-08T10:05:28.004Z,1.77
2023-05-08T10:07:54.732Z,1.90
2023-05-08T10:10:30.531Z,1.83
2023-05-08T10:12:58.533Z,1.70
2023-05-08T10:15:29.128Z,1.70
2023-05-08T10:18:04.713Z,2.03
2023-05-08T10:20:31.486Z,1.70
2023-05-08T10:22:59.069Z,2.00
2023-05-08T10:25:26.364Z,1.93
2023-05-08T10:27:58.083Z,1.70
2023-05-08T10:30:26.526Z,1.70
2023-05-08T10:32:58.421Z,1.47
2023-05-08T10:35:25.525Z,1.90
2023-05-08T10:37:52.363Z,1.90
2023-05-08T10:40:21.351Z,1.50
2023-05-08T10:42:48.374Z,1.83
2023-05-08T10:45:15.314Z,1.87
2023-05-08T10:48:03.973Z,1.80
2023-05-08T10:50:44.648Z,1.77
2023-05-08T10:53:16.681Z,2.00
2023-05-08T10:55:46.449Z,1.70
2023-05-08T10:58:15.327Z,1.90
2023-05-08T11:00:57.186Z,2.13
2023-05-08T11:03:32.179Z,1.93
2023-05-08T11:06:00.591Z,1.80
2023-05-08T11:08:28.375Z,1.80
2023-05-08T11:11:05.092Z,1.80
2023-05-08T11:13:36.419Z,3.50
2023-05-08T11:16:03.969Z,2.17
2023-05-08T11:18:45.693Z,2.07
2023-05-08T11:21:16.278Z,2.23
2023-05-08T11:23:42.954Z,1.87
2023-05-08T11:26:14.025Z,2.07
2023-05-08T11:28:56.879Z,1.90
2023-05-08T11:31:24.109Z,2.00
2023-05-08T11:33:50.700Z,2.00
2023-05-08T11:36:22.636Z,1.73
2023-05-08T11:39:16.075Z,2.07
2023-05-08T11:41:42.797Z,1.87
2023-05-08T11:44:22.709Z,1.87
2023-05-08T11:46:54.249Z,2.30
2023-05-08T11:49:26.280Z,2.00
2023-05-08T11:51:58.601Z,1.93
2023-05-08T11:54:25.851Z,1.77
2023-05-08T11:56:57.083Z,1.90
2023-05-08T11:59:23.676Z,1.87
2023-05-08T12:02:06.962Z,1.80
2023-05-08T12:04:46.643Z,1.70
2023-05-08T12:07:13.656Z,2.23
2023-05-08T12:09:40.375Z,1.87
2023-05-08T12:12:07.224Z,2.03
2023-05-08T12:14:34.673Z,1.60
2023-05-08T12:17:02.689Z,1.90
2023-05-08T12:19:29.232Z,2.07
2023-05-08T12:21:56.911Z,2.13
2023-05-08T12:24:24.250Z,1.50
2023-05-08T12:26:55.523Z,1.63
2023-05-08T12:29:22.754Z,1.70
2023-05-08T12:31:49.473Z,1.90
2023-05-08T12:34:16.133Z,1.80
2023-05-08T12:36:42.645Z,1.57
2023-05-08T12:39:16.681Z,2.10
2023-05-08T12:41:50.506Z,1.80
2023-05-08T12:44:21.506Z,1.77
2023-05-08T12:46:53.350Z,1.80
2023-05-08T12:49:32.662Z,1.50
2023-05-08T12:52:09.598Z,1.60
2023-05-08T12:54:37.981Z,1.90
2023-05-08T12:57:14.343Z,1.93
2023-05-08T12:59:41.495Z,1.67
2023-05-08T13:02:23.648Z,2.00
2023-05-08T13:04:54.562Z,1.87
2023-05-08T13:07:21.383Z,1.87
2023-05-08T13:10:03.666Z,1.77
2023-05-08T13:12:30.994Z,2.73
2023-05-08T13:14:57.734Z,1.90
2023-05-08T13:17:24.294Z,1.90
2023-05-08T13:19:50.885Z,1.90
2023-05-08T13:22:17.463Z,1.93
2023-05-08T13:24:44.235Z,1.60
2023-05-08T13:27:10.749Z,2.10
2023-05-08T13:29:37.252Z,1.63
2023-05-08T13:32:04.187Z,1.70
2023-05-08T13:34:30.677Z,1.97
2023-05-08T13:36:57.423Z,2.30
2023-05-08T13:39:23.906Z,2.20
2023-05-08T13:41:50.437Z,1.83
2023-05-08T13:44:16.891Z,1.70
2023-05-08T13:46:43.403Z,2.00
2023-05-08T13:49:10.156Z,1.67
2023-05-08T13:51:36.754Z,1.90
2023-05-08T13:54:03.436Z,1.87
2023-05-08T13:56:29.933Z,2.00
2023-05-08T13:58:56.483Z,1.60
2023-05-08T14:01:26.909Z,1.60
2023-05-08T14:03:55.000Z,1.60
2023-05-08T14:06:21.859Z,1.80
2023-05-08T14:08:50.993Z,1.73
2023-05-08T14:11:18.741Z,1.93
2023-05-08T14:13:45.296Z,1.77
2023-05-08T14:16:14.381Z,2.37
2023-05-08T14:18:41.104Z,1.90
2023-05-08T14:21:07.744Z,2.00
2023-05-08T14:23:35.585Z,1.60
2023-05-08T14:26:02.205Z,1.80
2023-05-08T14:28:28.714Z,1.57
2023-05-08T14:30:56.009Z,1.67
2023-05-08T14:33:22.625Z,1.90
2023-05-08T14:35:49.106Z,2.03
2023-05-08T14:38:15.626Z,1.70
2023-05-08T14:40:42.097Z,1.60
2023-05-08T14:43:08.611Z,2.03
2023-05-08T14:45:35.292Z,1.60
2023-05-08T14:48:01.789Z,2.00
2023-05-08T14:50:28.469Z,1.88
2023-05-08T14:52:55.410Z,2.10
2023-05-08T14:55:22.313Z,2.07
2023-05-08T14:57:51.624Z,1.98
2023-05-08T15:00:18.601Z,1.63
2023-05-08T15:02:45.325Z,1.77
2023-05-08T15:05:19.165Z,1.80
2023-05-08T15:07:46.259Z,2.07
2023-05-08T15:10:13.529Z,1.80
2023-05-08T15:12:40.060Z,1.90
2023-05-08T15:15:07.041Z,2.10
2023-05-08T15:17:36.416Z,1.77
2023-05-08T15:20:04.032Z,1.53
2023-05-08T15:22:30.489Z,2.13
2023-05-08T15:25:02.129Z,2.10
2023-05-08T15:27:29.457Z,1.80
2023-05-08T15:29:56.197Z,1.60
2023-05-08T15:32:22.721Z,1.63
2023-05-08T15:34:49.190Z,1.80
2023-05-08T15:37:15.889Z,1.60
2023-05-08T15:39:43.278Z,1.97
2023-05-08T15:42:09.908Z,1.90
2023-05-08T15:44:54.053Z,2.07
2023-05-08T15:47:23.194Z,1.87
2023-05-08T15:49:50.687Z,1.93
2023-05-08T15:52:18.737Z,1.90
2023-05-08T15:54:46.315Z,1.80
2023-05-08T15:57:13.003Z,1.77
2023-05-08T15:59:39.676Z,1.77
2023-05-08T16:02:06.474Z,1.73
2023-05-08T16:04:33.072Z,1.90
2023-05-08T16:07:00.231Z,1.73
2023-05-08T16:09:26.814Z,1.60
2023-05-08T16:11:53.386Z,2.13
2023-05-08T16:14:20.145Z,2.20
2023-05-08T16:16:46.637Z,2.00
2023-05-08T16:19:13.316Z,2.27
2023-05-08T16:21:39.777Z,2.07
2023-05-08T16:24:06.602Z,2.13
2023-05-08T16:26:33.062Z,2.27
2023-05-08T16:28:59.499Z,2.07
2023-05-08T16:31:27.322Z,3.00
2023-05-08T16:33:53.969Z,1.90
2023-05-08T16:36:20.568Z,1.50
2023-05-08T16:38:47.036Z,1.97
2023-05-08T16:41:13.559Z,1.77
2023-05-08T16:43:40.045Z,1.90
2023-05-08T16:46:07.337Z,2.30
2023-05-08T16:48:34.284Z,2.00
2023-05-08T16:51:00.731Z,1.87
2023-05-08T16:53:27.412Z,2.00
2023-05-08T16:55:54.575Z,2.03
2023-05-08T16:58:22.810Z,2.20
2023-05-08T17:00:49.586Z,2.10
2023-05-08T17:03:16.240Z,1.83
2023-05-08T17:05:42.854Z,2.07
2023-05-08T17:08:11.592Z,1.80
2023-05-08T17:10:39.365Z,2.00
2023-05-08T17:13:05.880Z,1.80
2023-05-08T17:15:32.489Z,2.40
2023-05-08T17:17:59.072Z,2.73
2023-05-08T17:20:26.197Z,2.50
2023-05-08T17:22:53.711Z,2.00
2023-05-08T17:25:22.283Z,2.50
2023-05-08T17:27:48.842Z,2.17
2023-05-08T17:30:16.885Z,2.13
2023-05-08T17:32:43.644Z,2.53
2023-05-08T17:35:10.389Z,2.10
2023-05-08T17:37:37.231Z,2.13
2023-05-08T17:40:03.962Z,1.80
2023-05-08T17:42:30.437Z,2.83
2023-05-08T17:44:57.149Z,2.30
2023-05-08T17:47:23.751Z,2.17
2023-05-08T17:49:50.512Z,2.93
2023-05-08T17:52:17.016Z,1.80
2023-05-08T17:54:43.624Z,2.67
2023-05-08T17:57:10.086Z,2.03
2023-05-08T17:59:36.529Z,2.23
2023-05-08T18:02:03.184Z,2.50
2023-05-08T18:04:29.756Z,2.60
2023-05-08T18:06:56.248Z,2.90
2023-05-08T18:09:22.879Z,2.37
2023-05-08T18:11:49.394Z,2.57
2023-05-08T18:14:15.993Z,2.33
2023-05-08T18:16:42.532Z,2.03
2023-05-08T18:19:09.065Z,2.33
2023-05-08T18:21:35.731Z,2.30
2023-05-08T18:24:02.318Z,2.30
2023-05-08T18:26:28.831Z,3.37
2023-05-08T18:28:55.380Z,2.40
2023-05-08T18:31:21.922Z,2.60
2023-05-08T18:33:48.461Z,2.10
2023-05-08T18:36:15.162Z,2.20
2023-05-08T18:38:42.074Z,2.30
2023-05-08T18:41:08.568Z,2.20
2023-05-08T18:43:35.121Z,2.20
2023-05-08T18:46:08.575Z,2.13
2023-05-08T18:48:35.570Z,2.80
2023-05-08T18:51:02.306Z,2.40
2023-05-08T18:53:30.486Z,2.50
2023-05-08T18:55:57.091Z,2.80
2023-05-08T18:58:23.628Z,2.87
2023-05-08T19:00:50.284Z,3.03
2023-05-08T19:03:18.410Z,2.90
2023-05-08T19:05:45.038Z,3.23
2023-05-08T19:08:13.142Z,2.90
2023-05-08T19:10:39.663Z,3.23
2023-05-08T19:13:06.281Z,3.03
2023-05-08T19:15:32.951Z,3.00
2023-05-08T19:17:59.445Z,2.80
2023-05-08T19:20:26.154Z,3.67
2023-05-08T19:22:52.722Z,3.37
2023-05-08T19:25:19.232Z,3.00
2023-05-08T19:27:46.090Z,3.50
2023-05-08T19:30:13.098Z,3.33
2023-05-08T19:32:39.669Z,3.27
2023-05-08T19:35:06.575Z,3.17
2023-05-08T19:37:33.044Z,3.93
2023-05-08T19:39:59.533Z,3.50
2023-05-08T19:42:26.233Z,3.70
2023-05-08T19:44:52.738Z,3.87
2023-05-08T19:47:19.277Z,3.67
2023-05-08T19:49:45.773Z,3.40
2023-05-08T19:52:12.479Z,3.60
2023-05-08T19:54:38.983Z,4.03
2023-05-08T19:57:05.447Z,3.63
2023-05-08T19:59:32.059Z,3.90
2023-05-08T20:01:58.680Z,4.03
2023-05-08T20:04:25.262Z,4.17
2023-05-08T20:06:51.776Z,3.70
2023-05-08T20:09:18.305Z,3.90
2023-05-08T20:11:44.953Z,3.80
2023-05-08T20:14:11.418Z,4.13
2023-05-08T20:16:37.936Z,4.23
2023-05-08T20:19:04.399Z,4.83
2023-05-08T20:21:32.347Z,4.23
2023-05-08T20:23:59.275Z,4.40
2023-05-08T20:26:27.114Z,4.47
2023-05-08T20:28:53.650Z,4.20
2023-05-08T20:31:20.191Z,4.70
2023-05-08T20:33:46.639Z,4.07
2023-05-08T20:36:13.137Z,4.50
2023-05-08T20:38:39.658Z,4.23
2023-05-08T20:41:06.192Z,4.37
2023-05-08T20:43:32.684Z,4.60
2023-05-08T20:45:59.160Z,4.93
2023-05-08T20:48:25.775Z,4.80
2023-05-08T20:50:52.207Z,4.80
2023-05-08T20:53:18.828Z,4.90
2023-05-08T20:55:45.381Z,4.73
2023-05-08T20:58:11.855Z,4.23
2023-05-08T21:00:38.369Z,4.60
2023-05-08T21:03:04.892Z,4.63
2023-05-08T21:05:31.493Z,4.63
2023-05-08T21:08:02.459Z,4.27
2023-05-08T21:10:31.182Z,4.53
2023-05-08T21:12:57.931Z,4.20
2023-05-08T21:15:24.446Z,4.57
2023-05-08T21:17:50.934Z,5.33
2023-05-08T21:20:18.093Z,6.80
2023-05-08T21:22:46.129Z,5.80
2023-05-08T21:25:14.891Z,5.60
2023-05-08T21:27:42.533Z,5.33
2023-05-08T21:30:09.985Z,5.40
2023-05-08T21:32:36.442Z,5.60
2023-05-08T21:35:03.863Z,4.90
2023-05-08T21:37:31.539Z,5.33
2023-05-08T21:39:57.986Z,5.13
2023-05-08T21:42:24.642Z,4.63
2023-05-08T21:44:51.216Z,4.70
2023-05-08T21:47:17.682Z,4.17
2023-05-08T21:49:44.187Z,5.27
2023-05-08T21:52:10.661Z,5.60
2023-05-08T21:54:37.108Z,5.73
2023-05-08T21:57:03.813Z,6.07
2023-05-08T21:59:30.271Z,5.73
2023-05-08T22:01:56.779Z,5.67
2023-05-08T22:04:23.266Z,5.20
2023-05-08T22:06:49.750Z,4.97
2023-05-08T22:09:16.180Z,5.03
2023-05-08T22:11:42.660Z,5.40
2023-05-08T22:14:09.093Z,4.97
2023-05-08T22:16:35.586Z,4.40
2023-05-08T22:19:02.124Z,4.97
2023-05-08T22:21:30.072Z,5.07
2023-05-08T22:23:57.075Z,4.87
2023-05-08T22:26:23.963Z,5.83
2023-05-08T22:28:51.050Z,5.43
2023-05-08T22:31:17.573Z,5.83
2023-05-08T22:33:44.156Z,6.20
2023-05-08T22:36:10.719Z,6.70
2023-05-08T22:38:37.295Z,6.03
2023-05-08T22:41:05.738Z,7.03
2023-05-08T22:43:32.631Z,6.40
2023-05-08T22:45:59.353Z,6.30
2023-05-08T22:48:25.858Z,5.33
2023-05-08T22:50:53.030Z,5.30
2023-05-08T22:53:19.539Z,5.70
2023-05-08T22:55:46.165Z,5.60
2023-05-08T22:58:12.608Z,7.07
2023-05-08T23:00:39.136Z,5.73
2023-05-08T23:03:05.743Z,4.50
2023-05-08T23:05:32.227Z,6.67
2023-05-08T23:07:58.868Z,5.30
2023-05-08T23:10:25.331Z,5.30
2023-05-08T23:12:51.832Z,6.60
2023-05-08T23:15:18.489Z,7.07
2023-05-08T23:17:45.211Z,5.70
2023-05-08T23:20:12.022Z,6.00
2023-05-08T23:22:38.463Z,5.60
2023-05-08T23:25:05.456Z,5.03
2023-05-08T23:27:31.906Z,5.73
2023-05-08T23:29:58.384Z,5.50
2023-05-08T23:32:25.182Z,7.07
2023-05-08T23:34:51.688Z,7.10
2023-05-08T23:37:18.135Z,8.03
2023-05-08T23:39:44.620Z,8.43
2023-05-08T23:42:11.300Z,7.37
2023-05-08T23:44:37.742Z,6.43
2023-05-08T23:47:04.323Z,7.40
2023-05-08T23:49:31.014Z,7.23
2023-05-08T23:51:57.747Z,6.90
2023-05-08T23:54:24.229Z,7.30
2023-05-08T23:56:50.831Z,7.73
2023-05-08T23:59:17.315Z,7.53
